sensor_id;sensor_type;location;lat;lon;timestamp;P1;durP1;ratioP1;P2;durP2;ratioP2
13785;SDS011;47474;48.824;9.384;2023-08-06T00:00:30;5.35;;;4.88;;
13785;SDS011;47474;48.824;9.384;2023-08-06T00:02:57;5.60;;;5.10;;
13785;SDS011;47474;48.824;9.384;2023-08-06T00:05:23;4.80;;;4.38;;
13785;SDS011;47474;48.824;9.384;2023-08-06T00:07:50;5.30;;;4.68;;
13785;SDS011;47474;48.824;9.384;2023-08-06T00:10:17;5.85;;;5.32;;
13785;SDS011;47474;48.824;9.384;2023-08-06T00:12:45;5.22;;;4.82;;
13785;SDS011;47474;48.824;9.384;2023-08-06T00:15:11;4.45;;;4.10;;
13785;SDS011;47474;48.824;9.384;2023-08-06T00:17:38;6.32;;;4.70;;
13785;SDS011;47474;48.824;9.384;2023-08-06T00:20:05;4.65;;;4.25;;
13785;SDS011;47474;48.824;9.384;2023-08-06T00:22:33;4.80;;;4.40;;
13785;SDS011;47474;48.824;9.384;2023-08-06T00:25:00;4.72;;;4.32;;
13785;SDS011;47474;48.824;9.384;2023-08-06T00:27:26;4.80;;;4.40;;
13785;SDS011;47474;48.824;9.384;2023-08-06T00:29:54;5.07;;;4.38;;
13785;SDS011;47474;48.824;9.384;2023-08-06T00:32:21;5.63;;;5.05;;
13785;SDS011;47474;48.824;9.384;2023-08-06T00:34:48;4.78;;;4.38;;
13785;SDS011;47474;48.824;9.384;2023-08-06T00:37:15;4.97;;;4.57;;
13785;SDS011;47474;48.824;9.384;2023-08-06T00:39:42;5.22;;;4.80;;
13785;SDS011;47474;48.824;9.384;2023-08-06T00:42:09;5.25;;;4.75;;
13785;SDS011;47474;48.824;9.384;2023-08-06T00:44:35;5.80;;;4.85;;
13785;SDS011;47474;48.824;9.384;2023-08-06T00:47:04;5.28;;;4.80;;
13785;SDS011;47474;48.824;9.384;2023-08-06T00:49:30;5.28;;;4.78;;
13785;SDS011;47474;48.824;9.384;2023-08-06T00:51:57;4.88;;;4.47;;
13785;SDS011;47474;48.824;9.384;2023-08-06T00:54:24;5.47;;;5.07;;
13785;SDS011;47474;48.824;9.384;2023-08-06T00:56:51;6.68;;;4.65;;
13785;SDS011;47474;48.824;9.384;2023-08-06T00:59:18;4.95;;;4.43;;
13785;SDS011;47474;48.824;9.384;2023-08-06T01:01:45;6.72;;;4.70;;
13785;SDS011;47474;48.824;9.384;2023-08-06T01:04:13;7.75;;;4.80;;
13785;SDS011;47474;48.824;9.384;2023-08-06T01:06:41;4.93;;;4.50;;
13785;SDS011;47474;48.824;9.384;2023-08-06T01:09:13;5.40;;;4.80;;
13785;SDS011;47474;48.824;9.384;2023-08-06T01:11:49;5.30;;;4.90;;
13785;SDS011;47474;48.824;9.384;2023-08-06T01:14:21;6.38;;;5.13;;
13785;SDS011;47474;48.824;9.384;2023-08-06T01:16:59;5.85;;;5.35;;
13785;SDS011;47474;48.824;9.384;2023-08-06T01:19:29;4.93;;;4.53;;
13785;SDS011;47474;48.824;9.384;2023-08-06T01:21:57;7.53;;;5.85;;
13785;SDS011;47474;48.824;9.384;2023-08-06T01:24:23;6.82;;;5.70;;
13785;SDS011;47474;48.824;9.384;2023-08-06T01:26:51;6.47;;;5.72;;
13785;SDS011;47474;48.824;9.384;2023-08-06T01:29:25;5.97;;;5.38;;
13785;SDS011;47474;48.824;9.384;2023-08-06T01:31:55;5.90;;;5.28;;
13785;SDS011;47474;48.824;9.384;2023-08-06T01:34:23;5.65;;;5.13;;
13785;SDS011;47474;48.824;9.384;2023-08-06T01:36:50;5.30;;;4.80;;
13785;SDS011;47474;48.824;9.384;2023-08-06T01:39:18;5.80;;;5.28;;
13785;SDS011;47474;48.824;9.384;2023-08-06T01:41:46;6.53;;;5.25;;
13785;SDS011;47474;48.824;9.384;2023-08-06T01:44:12;5.47;;;4.97;;
13785;SDS011;47474;48.824;9.384;2023-08-06T01:46:39;5.80;;;5.30;;
13785;SDS011;47474;48.824;9.384;2023-08-06T01:49:06;6.00;;;5.35;;
13785;SDS011;47474;48.824;9.384;2023-08-06T01:51:33;5.88;;;5.38;;
13785;SDS011;47474;48.824;9.384;2023-08-06T01:53:59;5.80;;;5.30;;
13785;SDS011;47474;48.824;9.384;2023-08-06T01:56:27;6.30;;;5.70;;
13785;SDS011;47474;48.824;9.384;2023-08-06T01:58:54;6.55;;;5.72;;
13785;SDS011;47474;48.824;9.384;2023-08-06T02:01:20;6.80;;;5.88;;
13785;SDS011;47474;48.824;9.384;2023-08-06T02:03:47;6.45;;;5.85;;
13785;SDS011;47474;48.824;9.384;2023-08-06T02:06:13;5.97;;;5.20;;
13785;SDS011;47474;48.824;9.384;2023-08-06T02:08:40;5.30;;;4.80;;
13785;SDS011;47474;48.824;9.384;2023-08-06T02:11:07;6.13;;;5.63;;
13785;SDS011;47474;48.824;9.384;2023-08-06T02:13:35;5.82;;;5.32;;
13785;SDS011;47474;48.824;9.384;2023-08-06T02:16:01;5.82;;;5.32;;
13785;SDS011;47474;48.824;9.384;2023-08-06T02:18:28;6.90;;;5.05;;
13785;SDS011;47474;48.824;9.384;2023-08-06T02:20:55;5.00;;;4.60;;
13785;SDS011;47474;48.824;9.384;2023-08-06T02:23:23;5.07;;;4.63;;
13785;SDS011;47474;48.824;9.384;2023-08-06T02:25:56;5.80;;;5.28;;
13785;SDS011;47474;48.824;9.384;2023-08-06T02:28:23;5.20;;;4.80;;
13785;SDS011;47474;48.824;9.384;2023-08-06T02:30:51;5.47;;;4.97;;
13785;SDS011;47474;48.824;9.384;2023-08-06T02:33:18;6.13;;;4.82;;
13785;SDS011;47474;48.824;9.384;2023-08-06T02:35:44;5.28;;;4.88;;
13785;SDS011;47474;48.824;9.384;2023-08-06T02:38:11;6.63;;;5.28;;
13785;SDS011;47474;48.824;9.384;2023-08-06T02:40:42;5.53;;;4.80;;
13785;SDS011;47474;48.824;9.384;2023-08-06T02:43:09;4.97;;;4.43;;
13785;SDS011;47474;48.824;9.384;2023-08-06T02:45:36;5.07;;;4.68;;
13785;SDS011;47474;48.824;9.384;2023-08-06T02:48:04;6.30;;;4.60;;
13785;SDS011;47474;48.824;9.384;2023-08-06T02:50:31;4.38;;;4.03;;
13785;SDS011;47474;48.824;9.384;2023-08-06T02:52:57;4.60;;;4.20;;
13785;SDS011;47474;48.824;9.384;2023-08-06T02:55:24;3.80;;;3.50;;
13785;SDS011;47474;48.824;9.384;2023-08-06T02:57:50;3.78;;;3.47;;
13785;SDS011;47474;48.824;9.384;2023-08-06T03:00:17;4.07;;;3.38;;
13785;SDS011;47474;48.824;9.384;2023-08-06T03:02:44;4.25;;;3.78;;
13785;SDS011;47474;48.824;9.384;2023-08-06T03:05:12;6.60;;;4.03;;
13785;SDS011;47474;48.824;9.384;2023-08-06T03:07:39;3.70;;;3.40;;
13785;SDS011;47474;48.824;9.384;2023-08-06T03:10:05;3.40;;;3.10;;
13785;SDS011;47474;48.824;9.384;2023-08-06T03:12:32;3.35;;;3.05;;
13785;SDS011;47474;48.824;9.384;2023-08-06T03:14:59;3.80;;;3.10;;
13785;SDS011;47474;48.824;9.384;2023-08-06T03:17:26;5.75;;;3.38;;
13785;SDS011;47474;48.824;9.384;2023-08-06T03:19:52;5.03;;;3.70;;
13785;SDS011;47474;48.824;9.384;2023-08-06T03:22:20;3.80;;;3.50;;
13785;SDS011;47474;48.824;9.384;2023-08-06T03:24:50;6.20;;;3.50;;
13785;SDS011;47474;48.824;9.384;2023-08-06T03:27:16;4.03;;;3.10;;
13785;SDS011;47474;48.824;9.384;2023-08-06T03:29:43;3.47;;;2.83;;
13785;SDS011;47474;48.824;9.384;2023-08-06T03:32:10;3.20;;;3.00;;
13785;SDS011;47474;48.824;9.384;2023-08-06T03:34:36;2.63;;;2.40;;
13785;SDS011;47474;48.824;9.384;2023-08-06T03:37:03;3.42;;;2.97;;
13785;SDS011;47474;48.824;9.384;2023-08-06T03:39:31;3.40;;;2.90;;
13785;SDS011;47474;48.824;9.384;2023-08-06T03:41:58;3.57;;;2.90;;
13785;SDS011;47474;48.824;9.384;2023-08-06T03:44:25;4.83;;;3.27;;
13785;SDS011;47474;48.824;9.384;2023-08-06T03:46:52;3.50;;;3.13;;
13785;SDS011;47474;48.824;9.384;2023-08-06T03:49:18;3.03;;;2.73;;
13785;SDS011;47474;48.824;9.384;2023-08-06T03:51:45;3.50;;;2.93;;
13785;SDS011;47474;48.824;9.384;2023-08-06T03:54:11;4.70;;;3.13;;
13785;SDS011;47474;48.824;9.384;2023-08-06T03:56:39;3.10;;;2.60;;
13785;SDS011;47474;48.824;9.384;2023-08-06T03:59:06;3.27;;;2.57;;
13785;SDS011;47474;48.824;9.384;2023-08-06T04:01:33;4.50;;;3.13;;
13785;SDS011;47474;48.824;9.384;2023-08-06T04:03:59;4.00;;;3.00;;
13785;SDS011;47474;48.824;9.384;2023-08-06T04:06:26;3.20;;;2.90;;
13785;SDS011;47474;48.824;9.384;2023-08-06T04:08:53;3.57;;;3.27;;
13785;SDS011;47474;48.824;9.384;2023-08-06T04:11:19;3.73;;;2.43;;
13785;SDS011;47474;48.824;9.384;2023-08-06T04:13:47;5.33;;;2.97;;
13785;SDS011;47474;48.824;9.384;2023-08-06T04:16:14;3.40;;;2.83;;
13785;SDS011;47474;48.824;9.384;2023-08-06T04:18:40;4.20;;;2.67;;
13785;SDS011;47474;48.824;9.384;2023-08-06T04:21:07;3.20;;;2.87;;
13785;SDS011;47474;48.824;9.384;2023-08-06T04:23:34;2.80;;;2.47;;
13785;SDS011;47474;48.824;9.384;2023-08-06T04:26:00;6.53;;;2.90;;
13785;SDS011;47474;48.824;9.384;2023-08-06T04:28:27;5.33;;;3.30;;
13785;SDS011;47474;48.824;9.384;2023-08-06T04:30:55;3.97;;;2.90;;
13785;SDS011;47474;48.824;9.384;2023-08-06T04:33:22;5.10;;;2.97;;
13785;SDS011;47474;48.824;9.384;2023-08-06T04:35:53;3.20;;;2.70;;
13785;SDS011;47474;48.824;9.384;2023-08-06T04:38:20;4.03;;;3.00;;
13785;SDS011;47474;48.824;9.384;2023-08-06T04:40:46;4.00;;;2.90;;
13785;SDS011;47474;48.824;9.384;2023-08-06T04:43:13;4.33;;;2.90;;
13785;SDS011;47474;48.824;9.384;2023-08-06T04:45:45;3.10;;;2.80;;
13785;SDS011;47474;48.824;9.384;2023-08-06T04:48:13;4.57;;;3.03;;
13785;SDS011;47474;48.824;9.384;2023-08-06T04:50:42;3.20;;;2.90;;
13785;SDS011;47474;48.824;9.384;2023-08-06T04:53:10;3.10;;;2.80;;
13785;SDS011;47474;48.824;9.384;2023-08-06T04:55:36;3.20;;;2.90;;
13785;SDS011;47474;48.824;9.384;2023-08-06T04:58:03;4.27;;;2.80;;
13785;SDS011;47474;48.824;9.384;2023-08-06T05:00:29;2.73;;;2.50;;
13785;SDS011;47474;48.824;9.384;2023-08-06T05:02:56;3.13;;;2.80;;
13785;SDS011;47474;48.824;9.384;2023-08-06T05:05:24;5.10;;;3.10;;
13785;SDS011;47474;48.824;9.384;2023-08-06T05:07:51;5.13;;;3.40;;
13785;SDS011;47474;48.824;9.384;2023-08-06T05:10:18;4.20;;;2.97;;
13785;SDS011;47474;48.824;9.384;2023-08-06T05:12:44;3.77;;;3.37;;
13785;SDS011;47474;48.824;9.384;2023-08-06T05:15:11;4.27;;;3.00;;
13785;SDS011;47474;48.824;9.384;2023-08-06T05:17:37;3.33;;;2.77;;
13785;SDS011;47474;48.824;9.384;2023-08-06T05:20:04;3.40;;;3.10;;
13785;SDS011;47474;48.824;9.384;2023-08-06T05:22:33;4.03;;;2.53;;
13785;SDS011;47474;48.824;9.384;2023-08-06T05:25:00;3.40;;;2.80;;
13785;SDS011;47474;48.824;9.384;2023-08-06T05:27:27;5.13;;;3.33;;
13785;SDS011;47474;48.824;9.384;2023-08-06T05:29:54;3.77;;;2.87;;
13785;SDS011;47474;48.824;9.384;2023-08-06T05:32:21;3.63;;;3.03;;
13785;SDS011;47474;48.824;9.384;2023-08-06T05:34:48;4.43;;;3.10;;
13785;SDS011;47474;48.824;9.384;2023-08-06T05:37:15;3.63;;;2.70;;
13785;SDS011;47474;48.824;9.384;2023-08-06T05:39:43;3.80;;;2.53;;
13785;SDS011;47474;48.824;9.384;2023-08-06T05:42:09;4.33;;;2.93;;
13785;SDS011;47474;48.824;9.384;2023-08-06T05:44:36;2.93;;;2.67;;
13785;SDS011;47474;48.824;9.384;2023-08-06T05:47:03;3.47;;;2.37;;
13785;SDS011;47474;48.824;9.384;2023-08-06T05:49:30;3.60;;;2.73;;
13785;SDS011;47474;48.824;9.384;2023-08-06T05:51:56;3.20;;;2.60;;
13785;SDS011;47474;48.824;9.384;2023-08-06T05:54:23;3.00;;;2.57;;
13785;SDS011;47474;48.824;9.384;2023-08-06T05:56:51;2.93;;;2.53;;
13785;SDS011;47474;48.824;9.384;2023-08-06T05:59:18;3.87;;;2.77;;
13785;SDS011;47474;48.824;9.384;2023-08-06T06:01:44;4.23;;;2.63;;
13785;SDS011;47474;48.824;9.384;2023-08-06T06:04:11;3.50;;;2.40;;
13785;SDS011;47474;48.824;9.384;2023-08-06T06:06:38;4.03;;;2.23;;
13785;SDS011;47474;48.824;9.384;2023-08-06T06:09:06;3.20;;;2.40;;
13785;SDS011;47474;48.824;9.384;2023-08-06T06:11:33;4.70;;;2.13;;
13785;SDS011;47474;48.824;9.384;2023-08-06T06:14:01;2.33;;;2.13;;
13785;SDS011;47474;48.824;9.384;2023-08-06T06:16:28;2.77;;;2.00;;
13785;SDS011;47474;48.824;9.384;2023-08-06T06:18:54;1.90;;;1.60;;
13785;SDS011;47474;48.824;9.384;2023-08-06T06:21:22;2.87;;;1.93;;
13785;SDS011;47474;48.824;9.384;2023-08-06T06:23:49;2.10;;;1.60;;
13785;SDS011;47474;48.824;9.384;2023-08-06T06:26:17;2.60;;;1.70;;
13785;SDS011;47474;48.824;9.384;2023-08-06T06:28:44;2.97;;;2.00;;
13785;SDS011;47474;48.824;9.384;2023-08-06T06:31:12;3.97;;;1.53;;
13785;SDS011;47474;48.824;9.384;2023-08-06T06:33:38;2.27;;;1.93;;
13785;SDS011;47474;48.824;9.384;2023-08-06T06:36:05;2.27;;;1.60;;
13785;SDS011;47474;48.824;9.384;2023-08-06T06:38:32;4.07;;;1.55;;
13785;SDS011;47474;48.824;9.384;2023-08-06T06:40:59;1.57;;;1.27;;
13785;SDS011;47474;48.824;9.384;2023-08-06T06:43:27;2.57;;;1.37;;
13785;SDS011;47474;48.824;9.384;2023-08-06T06:45:55;3.73;;;1.47;;
13785;SDS011;47474;48.824;9.384;2023-08-06T06:48:24;1.50;;;1.20;;
13785;SDS011;47474;48.824;9.384;2023-08-06T06:50:51;1.53;;;1.00;;
13785;SDS011;47474;48.824;9.384;2023-08-06T06:53:18;1.67;;;1.23;;
13785;SDS011;47474;48.824;9.384;2023-08-06T06:55:44;2.10;;;1.40;;
13785;SDS011;47474;48.824;9.384;2023-08-06T06:58:14;1.73;;;1.10;;
13785;SDS011;47474;48.824;9.384;2023-08-06T07:00:40;2.10;;;1.30;;
13785;SDS011;47474;48.824;9.384;2023-08-06T07:03:07;1.80;;;1.40;;
13785;SDS011;47474;48.824;9.384;2023-08-06T07:05:35;4.37;;;1.40;;
13785;SDS011;47474;48.824;9.384;2023-08-06T07:08:02;2.10;;;1.30;;
13785;SDS011;47474;48.824;9.384;2023-08-06T07:10:28;2.20;;;1.40;;
13785;SDS011;47474;48.824;9.384;2023-08-06T07:12:55;2.17;;;1.13;;
13785;SDS011;47474;48.824;9.384;2023-08-06T07:15:21;3.30;;;0.93;;
13785;SDS011;47474;48.824;9.384;2023-08-06T07:17:48;2.33;;;1.20;;
13785;SDS011;47474;48.824;9.384;2023-08-06T07:20:15;1.30;;;1.20;;
13785;SDS011;47474;48.824;9.384;2023-08-06T07:22:43;2.40;;;1.27;;
13785;SDS011;47474;48.824;9.384;2023-08-06T07:25:09;2.03;;;1.00;;
13785;SDS011;47474;48.824;9.384;2023-08-06T07:27:36;2.07;;;1.03;;
13785;SDS011;47474;48.824;9.384;2023-08-06T07:30:03;2.50;;;1.57;;
13785;SDS011;47474;48.824;9.384;2023-08-06T07:32:31;2.13;;;1.20;;
13785;SDS011;47474;48.824;9.384;2023-08-06T07:34:57;1.77;;;1.20;;
13785;SDS011;47474;48.824;9.384;2023-08-06T07:37:25;2.63;;;0.97;;
13785;SDS011;47474;48.824;9.384;2023-08-06T07:39:55;1.23;;;1.13;;
13785;SDS011;47474;48.824;9.384;2023-08-06T07:42:22;1.80;;;0.90;;
13785;SDS011;47474;48.824;9.384;2023-08-06T07:44:51;1.27;;;1.17;;
13785;SDS011;47474;48.824;9.384;2023-08-06T07:47:18;1.17;;;0.87;;
13785;SDS011;47474;48.824;9.384;2023-08-06T07:49:45;2.17;;;1.10;;
13785;SDS011;47474;48.824;9.384;2023-08-06T07:52:12;1.13;;;0.90;;
13785;SDS011;47474;48.824;9.384;2023-08-06T07:54:38;1.87;;;1.13;;
13785;SDS011;47474;48.824;9.384;2023-08-06T07:57:06;1.50;;;0.90;;
13785;SDS011;47474;48.824;9.384;2023-08-06T07:59:33;2.37;;;1.00;;
13785;SDS011;47474;48.824;9.384;2023-08-06T08:02:00;0.90;;;0.60;;
13785;SDS011;47474;48.824;9.384;2023-08-06T08:04:27;1.87;;;1.00;;
13785;SDS011;47474;48.824;9.384;2023-08-06T08:06:53;1.53;;;0.90;;
13785;SDS011;47474;48.824;9.384;2023-08-06T08:09:20;1.40;;;0.93;;
13785;SDS011;47474;48.824;9.384;2023-08-06T08:11:47;1.63;;;0.80;;
13785;SDS011;47474;48.824;9.384;2023-08-06T08:14:15;1.23;;;0.70;;
13785;SDS011;47474;48.824;9.384;2023-08-06T08:16:42;1.53;;;0.70;;
13785;SDS011;47474;48.824;9.384;2023-08-06T08:19:08;1.00;;;0.60;;
13785;SDS011;47474;48.824;9.384;2023-08-06T08:21:35;0.57;;;0.40;;
13785;SDS011;47474;48.824;9.384;2023-08-06T08:24:03;0.57;;;0.50;;
13785;SDS011;47474;48.824;9.384;2023-08-06T08:26:30;3.03;;;0.40;;
13785;SDS011;47474;48.824;9.384;2023-08-06T08:28:57;1.93;;;0.30;;
13785;SDS011;47474;48.824;9.384;2023-08-06T08:31:25;0.40;;;0.40;;
13785;SDS011;47474;48.824;9.384;2023-08-06T08:33:53;1.00;;;0.60;;
13785;SDS011;47474;48.824;9.384;2023-08-06T08:36:20;0.30;;;0.30;;
13785;SDS011;47474;48.824;9.384;2023-08-06T08:38:46;0.67;;;0.43;;
13785;SDS011;47474;48.824;9.384;2023-08-06T08:41:14;0.50;;;0.30;;
13785;SDS011;47474;48.824;9.384;2023-08-06T08:43:41;0.20;;;0.20;;
13785;SDS011;47474;48.824;9.384;2023-08-06T08:46:09;0.20;;;0.20;;
13785;SDS011;47474;48.824;9.384;2023-08-06T08:48:37;0.60;;;0.20;;
13785;SDS011;47474;48.824;9.384;2023-08-06T08:51:04;0.40;;;0.20;;
13785;SDS011;47474;48.824;9.384;2023-08-06T08:53:32;0.27;;;0.20;;
13785;SDS011;47474;48.824;9.384;2023-08-06T08:55:59;0.20;;;0.20;;
13785;SDS011;47474;48.824;9.384;2023-08-06T08:58:26;0.10;;;0.10;;
13785;SDS011;47474;48.824;9.384;2023-08-06T09:00:52;0.20;;;0.15;;
13785;SDS011;47474;48.824;9.384;2023-08-06T09:03:19;0.75;;;0.38;;
13785;SDS011;47474;48.824;9.384;2023-08-06T09:05:52;2.08;;;0.40;;
13785;SDS011;47474;48.824;9.384;2023-08-06T09:08:20;0.45;;;0.30;;
13785;SDS011;47474;48.824;9.384;2023-08-06T09:10:50;0.30;;;0.30;;
13785;SDS011;47474;48.824;9.384;2023-08-06T09:13:17;1.88;;;0.30;;
13785;SDS011;47474;48.824;9.384;2023-08-06T09:15:45;0.20;;;0.20;;
13785;SDS011;47474;48.824;9.384;2023-08-06T09:18:11;0.10;;;0.10;;
13785;SDS011;47474;48.824;9.384;2023-08-06T09:20:38;0.15;;;0.15;;
13785;SDS011;47474;48.824;9.384;2023-08-06T09:23:10;0.50;;;0.40;;
13785;SDS011;47474;48.824;9.384;2023-08-06T09:25:37;0.10;;;0.10;;
13785;SDS011;47474;48.824;9.384;2023-08-06T09:28:05;1.27;;;0.70;;
13785;SDS011;47474;48.824;9.384;2023-08-06T09:30:34;1.13;;;0.30;;
13785;SDS011;47474;48.824;9.384;2023-08-06T09:33:01;0.30;;;0.30;;
13785;SDS011;47474;48.824;9.384;2023-08-06T09:35:28;0.15;;;0.15;;
13785;SDS011;47474;48.824;9.384;2023-08-06T09:37:55;0.57;;;0.40;;
13785;SDS011;47474;48.824;9.384;2023-08-06T09:40:27;0.40;;;0.40;;
13785;SDS011;47474;48.824;9.384;2023-08-06T09:42:54;0.50;;;0.50;;
13785;SDS011;47474;48.824;9.384;2023-08-06T09:45:37;0.25;;;0.25;;
13785;SDS011;47474;48.824;9.384;2023-08-06T09:48:04;0.30;;;0.20;;
13785;SDS011;47474;48.824;9.384;2023-08-06T09:50:32;1.55;;;0.30;;
13785;SDS011;47474;48.824;9.384;2023-08-06T09:53:01;0.93;;;0.20;;
13785;SDS011;47474;48.824;9.384;2023-08-06T09:55:29;0.28;;;0.28;;
13785;SDS011;47474;48.824;9.384;2023-08-06T09:57:56;0.20;;;0.20;;
13785;SDS011;47474;48.824;9.384;2023-08-06T10:00:24;0.20;;;0.20;;
13785;SDS011;47474;48.824;9.384;2023-08-06T10:02:51;0.10;;;0.10;;
13785;SDS011;47474;48.824;9.384;2023-08-06T10:05:21;0.30;;;0.30;;
13785;SDS011;47474;48.824;9.384;2023-08-06T10:07:48;0.15;;;0.10;;
13785;SDS011;47474;48.824;9.384;2023-08-06T10:10:16;0.47;;;0.40;;
13785;SDS011;47474;48.824;9.384;2023-08-06T10:12:44;1.40;;;0.17;;
13785;SDS011;47474;48.824;9.384;2023-08-06T10:15:14;0.30;;;0.20;;
13785;SDS011;47474;48.824;9.384;2023-08-06T10:17:42;0.30;;;0.30;;
13785;SDS011;47474;48.824;9.384;2023-08-06T10:20:10;0.57;;;0.28;;
13785;SDS011;47474;48.824;9.384;2023-08-06T10:22:37;0.20;;;0.20;;
13785;SDS011;47474;48.824;9.384;2023-08-06T10:25:08;0.25;;;0.25;;
13785;SDS011;47474;48.824;9.384;2023-08-06T10:27:36;0.17;;;0.17;;
13785;SDS011;47474;48.824;9.384;2023-08-06T10:30:26;0.20;;;0.20;;
13785;SDS011;47474;48.824;9.384;2023-08-06T10:32:54;0.20;;;0.20;;
13785;SDS011;47474;48.824;9.384;2023-08-06T10:35:28;0.20;;;0.20;;
13785;SDS011;47474;48.824;9.384;2023-08-06T10:38:00;0.60;;;0.40;;
13785;SDS011;47474;48.824;9.384;2023-08-06T10:40:30;0.20;;;0.20;;
13785;SDS011;47474;48.824;9.384;2023-08-06T10:43:01;0.30;;;0.30;;
13785;SDS011;47474;48.824;9.384;2023-08-06T10:45:29;0.20;;;0.20;;
13785;SDS011;47474;48.824;9.384;2023-08-06T10:47:56;0.45;;;0.30;;
13785;SDS011;47474;48.824;9.384;2023-08-06T10:50:23;0.20;;;0.20;;
13785;SDS011;47474;48.824;9.384;2023-08-06T10:52:50;0.40;;;0.40;;
13785;SDS011;47474;48.824;9.384;2023-08-06T10:55:25;0.40;;;0.40;;
13785;SDS011;47474;48.824;9.384;2023-08-06T10:57:54;0.47;;;0.28;;
13785;SDS011;47474;48.824;9.384;2023-08-06T11:00:21;0.13;;;0.13;;
13785;SDS011;47474;48.824;9.384;2023-08-06T11:02:51;0.43;;;0.35;;
13785;SDS011;47474;48.824;9.384;2023-08-06T11:05:19;0.52;;;0.30;;
13785;SDS011;47474;48.824;9.384;2023-08-06T11:07:45;0.30;;;0.25;;
13785;SDS011;47474;48.824;9.384;2023-08-06T11:10:13;0.70;;;0.20;;
13785;SDS011;47474;48.824;9.384;2023-08-06T11:12:40;2.97;;;0.45;;
13785;SDS011;47474;48.824;9.384;2023-08-06T11:15:07;0.50;;;0.30;;
13785;SDS011;47474;48.824;9.384;2023-08-06T11:17:34;0.33;;;0.33;;
13785;SDS011;47474;48.824;9.384;2023-08-06T11:20:03;0.40;;;0.40;;
13785;SDS011;47474;48.824;9.384;2023-08-06T11:22:31;0.40;;;0.40;;
13785;SDS011;47474;48.824;9.384;2023-08-06T11:24:57;0.60;;;0.60;;
13785;SDS011;47474;48.824;9.384;2023-08-06T11:27:26;0.50;;;0.50;;
13785;SDS011;47474;48.824;9.384;2023-08-06T11:29:53;0.75;;;0.70;;
13785;SDS011;47474;48.824;9.384;2023-08-06T11:32:19;0.70;;;0.70;;
13785;SDS011;47474;48.824;9.384;2023-08-06T11:34:46;0.63;;;0.60;;
13785;SDS011;47474;48.824;9.384;2023-08-06T11:37:14;0.73;;;0.73;;
13785;SDS011;47474;48.824;9.384;2023-08-06T11:39:45;1.77;;;0.80;;
13785;SDS011;47474;48.824;9.384;2023-08-06T11:42:13;0.73;;;0.60;;
13785;SDS011;47474;48.824;9.384;2023-08-06T11:44:40;0.70;;;0.70;;
13785;SDS011;47474;48.824;9.384;2023-08-06T11:47:11;0.90;;;0.90;;
13785;SDS011;47474;48.824;9.384;2023-08-06T11:49:39;1.73;;;0.90;;
13785;SDS011;47474;48.824;9.384;2023-08-06T11:52:10;1.03;;;0.87;;
13785;SDS011;47474;48.824;9.384;2023-08-06T11:54:40;1.10;;;1.00;;
13785;SDS011;47474;48.824;9.384;2023-08-06T11:57:07;1.83;;;1.00;;
13785;SDS011;47474;48.824;9.384;2023-08-06T11:59:34;1.47;;;1.10;;
13785;SDS011;47474;48.824;9.384;2023-08-06T12:02:01;1.20;;;1.07;;
13785;SDS011;47474;48.824;9.384;2023-08-06T12:04:30;1.03;;;0.97;;
13785;SDS011;47474;48.824;9.384;2023-08-06T12:07:04;1.73;;;1.30;;
13785;SDS011;47474;48.824;9.384;2023-08-06T12:09:31;2.17;;;1.33;;
13785;SDS011;47474;48.824;9.384;2023-08-06T12:12:00;2.63;;;1.40;;
13785;SDS011;47474;48.824;9.384;2023-08-06T12:14:26;2.27;;;1.53;;
13785;SDS011;47474;48.824;9.384;2023-08-06T12:16:53;2.07;;;1.30;;
13785;SDS011;47474;48.824;9.384;2023-08-06T12:19:20;2.03;;;1.43;;
13785;SDS011;47474;48.824;9.384;2023-08-06T12:21:48;1.97;;;1.63;;
13785;SDS011;47474;48.824;9.384;2023-08-06T12:24:15;2.08;;;1.70;;
13785;SDS011;47474;48.824;9.384;2023-08-06T12:26:41;2.53;;;1.60;;
13785;SDS011;47474;48.824;9.384;2023-08-06T12:29:09;2.30;;;1.50;;
13785;SDS011;47474;48.824;9.384;2023-08-06T12:31:36;2.60;;;1.97;;
13785;SDS011;47474;48.824;9.384;2023-08-06T12:34:02;2.30;;;1.83;;
13785;SDS011;47474;48.824;9.384;2023-08-06T12:36:29;1.90;;;1.73;;
13785;SDS011;47474;48.824;9.384;2023-08-06T12:38:56;2.00;;;1.80;;
13785;SDS011;47474;48.824;9.384;2023-08-06T12:41:22;2.47;;;1.93;;
13785;SDS011;47474;48.824;9.384;2023-08-06T12:43:49;2.10;;;1.90;;
13785;SDS011;47474;48.824;9.384;2023-08-06T12:46:17;2.60;;;1.90;;
13785;SDS011;47474;48.824;9.384;2023-08-06T12:48:44;4.70;;;2.10;;
13785;SDS011;47474;48.824;9.384;2023-08-06T12:51:10;2.97;;;1.80;;
13785;SDS011;47474;48.824;9.384;2023-08-06T12:53:37;2.90;;;2.10;;
13785;SDS011;47474;48.824;9.384;2023-08-06T12:56:04;3.67;;;2.30;;
13785;SDS011;47474;48.824;9.384;2023-08-06T12:58:32;3.97;;;2.17;;
13785;SDS011;47474;48.824;9.384;2023-08-06T13:00:59;2.83;;;2.10;;
13785;SDS011;47474;48.824;9.384;2023-08-06T13:03:28;2.27;;;2.07;;
13785;SDS011;47474;48.824;9.384;2023-08-06T13:06:12;2.00;;;1.80;;
13785;SDS011;47474;48.824;9.384;2023-08-06T13:08:41;2.70;;;1.53;;
13785;SDS011;47474;48.824;9.384;2023-08-06T13:11:10;2.13;;;1.60;;
13785;SDS011;47474;48.824;9.384;2023-08-06T13:14:14;1.50;;;1.20;;
13785;SDS011;47474;48.824;9.384;2023-08-06T13:16:41;2.23;;;1.40;;
13785;SDS011;47474;48.824;9.384;2023-08-06T13:19:12;1.60;;;1.47;;
13785;SDS011;47474;48.824;9.384;2023-08-06T13:22:02;2.93;;;1.20;;
13785;SDS011;47474;48.824;9.384;2023-08-06T13:24:31;1.73;;;1.30;;
13785;SDS011;47474;48.824;9.384;2023-08-06T13:27:05;2.53;;;1.30;;
13785;SDS011;47474;48.824;9.384;2023-08-06T13:33:06;1.50;;;1.40;;
13785;SDS011;47474;48.824;9.384;2023-08-06T13:38:55;2.37;;;1.60;;
13785;SDS011;47474;48.824;9.384;2023-08-06T13:42:02;2.03;;;1.20;;
13785;SDS011;47474;48.824;9.384;2023-08-06T13:47:28;1.60;;;1.10;;
13785;SDS011;47474;48.824;9.384;2023-08-06T13:49:55;2.87;;;1.30;;
13785;SDS011;47474;48.824;9.384;2023-08-06T13:52:26;1.10;;;1.00;;
13785;SDS011;47474;48.824;9.384;2023-08-06T13:54:54;1.40;;;1.00;;
13785;SDS011;47474;48.824;9.384;2023-08-06T13:57:21;2.63;;;1.20;;
13785;SDS011;47474;48.824;9.384;2023-08-06T13:59:47;1.43;;;0.80;;
13785;SDS011;47474;48.824;9.384;2023-08-06T14:02:14;0.87;;;0.87;;
13785;SDS011;47474;48.824;9.384;2023-08-06T14:04:46;3.03;;;0.97;;
13785;SDS011;47474;48.824;9.384;2023-08-06T14:07:26;1.13;;;0.90;;
13785;SDS011;47474;48.824;9.384;2023-08-06T14:10:15;0.88;;;0.70;;
13785;SDS011;47474;48.824;9.384;2023-08-06T14:12:44;0.70;;;0.70;;
13785;SDS011;47474;48.824;9.384;2023-08-06T14:15:11;1.43;;;0.87;;
13785;SDS011;47474;48.824;9.384;2023-08-06T14:17:38;0.90;;;0.90;;
13785;SDS011;47474;48.824;9.384;2023-08-06T14:20:07;0.80;;;0.80;;
13785;SDS011;47474;48.824;9.384;2023-08-06T14:22:38;1.15;;;0.98;;
13785;SDS011;47474;48.824;9.384;2023-08-06T14:25:05;1.85;;;0.70;;
13785;SDS011;47474;48.824;9.384;2023-08-06T14:27:32;0.73;;;0.73;;
13785;SDS011;47474;48.824;9.384;2023-08-06T14:29:59;1.13;;;0.93;;
13785;SDS011;47474;48.824;9.384;2023-08-06T14:32:28;0.90;;;0.90;;
13785;SDS011;47474;48.824;9.384;2023-08-06T14:34:54;1.50;;;1.20;;
13785;SDS011;47474;48.824;9.384;2023-08-06T14:37:21;2.33;;;0.90;;
13785;SDS011;47474;48.824;9.384;2023-08-06T14:39:49;2.08;;;1.13;;
13785;SDS011;47474;48.824;9.384;2023-08-06T14:42:16;1.10;;;0.98;;
13785;SDS011;47474;48.824;9.384;2023-08-06T14:44:43;0.90;;;0.90;;
13785;SDS011;47474;48.824;9.384;2023-08-06T14:47:09;2.37;;;1.27;;
13785;SDS011;47474;48.824;9.384;2023-08-06T14:49:37;1.13;;;1.03;;
13785;SDS011;47474;48.824;9.384;2023-08-06T14:52:04;1.52;;;1.23;;
13785;SDS011;47474;48.824;9.384;2023-08-06T14:54:32;2.75;;;1.20;;
13785;SDS011;47474;48.824;9.384;2023-08-06T14:56:59;1.17;;;0.98;;
13785;SDS011;47474;48.824;9.384;2023-08-06T14:59:26;1.17;;;1.08;;
13785;SDS011;47474;48.824;9.384;2023-08-06T15:01:53;1.65;;;1.10;;